Milagro, New Mexico
Current Conditions -  °F | °C
As of 3:53 AM on Thursday 27 Nov 2014 (Local Time) from KCQC Reporting Station
Clear Clear  
Wind Chill: 20°   Ceiling: Unl
Heat Index: 31°   Visibility: 10mi
Dew Point: 21°   Wind: 15mph
Humidity: 67%   Direction: 300°WNW
Pressure: 30.4"   Gusts: NA
Location:  34.5735°N, 105.476°W
Report Text: KCQC 271053Z AUTO 30013KT 10SM CLR M01/M06 A3040 RMK AO2 SLP273 T10061061
Loading
Personal Weather Stations






























Interactive Weather Map New forecast layout! Learn more

10-Day Weather Forecast

Advertisements
Track Severe Weather on mobile